Time;durP1;ratioP1;P1;durP2;ratioP2;P2;SDS_P1;SDS_P2;PMS_P1;PMS_P2;Temp;Humidity;BMP_temperature;BMP_pressure;BME280_temperature;BME280_humidity;BME280_pressure;Samples;Min_cycle;Max_cycle;Signal;HPM_P1;HPM_P2
2022/12/07 00:01:18;;;;;;;20.80;9.30;;;;;;;-5.34;100.00;99297.25;5019884;28;20386;-58
2022/12/07 00:03:46;;;;;;;17.00;8.05;;;;;;;-5.05;100.00;99292.34;5019924;28;20060;-59
2022/12/07 00:06:14;;;;;;;20.63;9.23;;;;;;;-4.86;100.00;99291.94;5019520;28;20446;-59
2022/12/07 00:08:40;;;;;;;16.92;9.20;;;;;;;-4.87;100.00;99301.00;5019988;28;20057;-58
2022/12/07 00:11:09;;;;;;;16.80;8.98;;;;;;;-5.24;100.00;99323.25;5019327;28;20060;-60
2022/12/07 00:13:36;;;;;;;17.40;8.48;;;;;;;-5.17;100.00;99317.66;5019332;28;20140;-55
2022/12/07 00:16:05;;;;;;;14.18;7.43;;;;;;;-5.30;100.00;99313.56;5019649;28;20315;-57
2022/12/07 00:18:31;;;;;;;24.80;10.35;;;;;;;-5.21;100.00;99312.03;5019306;28;20125;-59
2022/12/07 00:21:01;;;;;;;20.05;10.93;;;;;;;-5.47;100.00;99311.06;5019431;28;20046;-55
2022/12/07 00:23:27;;;;;;;23.02;9.95;;;;;;;-5.36;100.00;99296.72;5019216;28;20060;-56
2022/12/07 00:25:54;;;;;;;28.73;12.40;;;;;;;-5.25;100.00;99290.38;5019546;28;20064;-60
2022/12/07 00:28:20;;;;;;;23.70;10.43;;;;;;;-5.36;100.00;99287.91;5019250;28;20137;-57
2022/12/07 00:30:47;;;;;;;24.85;10.23;;;;;;;-5.39;100.00;99288.41;5019753;28;20498;-58
2022/12/07 00:33:13;;;;;;;31.75;12.80;;;;;;;-5.14;100.00;99283.22;5019036;28;20050;-57
2022/12/07 00:35:39;;;;;;;33.65;12.35;;;;;;;-5.34;100.00;99288.44;5019530;28;20093;-59
2022/12/07 00:38:06;;;;;;;30.60;12.02;;;;;;;-5.36;100.00;99288.72;5019174;28;20053;-59
2022/12/07 00:40:32;;;;;;;38.33;15.10;;;;;;;-5.07;100.00;99283.78;5019213;28;20372;-58
2022/12/07 00:42:58;;;;;;;39.95;13.15;;;;;;;-5.40;100.00;99284.91;5019224;28;20149;-58
2022/12/07 00:45:24;;;;;;;28.35;12.80;;;;;;;-5.44;100.00;99278.47;5019030;28;20061;-59
2022/12/07 00:47:51;;;;;;;29.95;11.25;;;;;;;-5.36;100.00;99263.84;5019453;28;20061;-59
2022/12/07 00:50:17;;;;;;;27.98;12.93;;;;;;;-5.47;100.00;99254.94;5018952;28;20082;-60
2022/12/07 00:52:44;;;;;;;19.83;9.63;;;;;;;-5.48;100.00;99256.03;5019227;28;20118;-55
2022/12/07 00:55:10;;;;;;;29.95;11.25;;;;;;;-5.25;100.00;99244.94;5018998;28;20058;-58
2022/12/07 00:57:36;;;;;;;26.58;13.38;;;;;;;-5.39;100.00;99248.34;5019161;28;20058;-56
2022/12/07 01:00:03;;;;;;;25.08;12.07;;;;;;;-4.97;100.00;99242.94;5018682;28;20169;-59
2022/12/07 01:02:30;;;;;;;24.77;11.98;;;;;;;-5.12;100.00;99259.72;5018994;28;20144;-57
2022/12/07 01:04:57;;;;;;;28.63;11.85;;;;;;;-4.88;100.00;99259.28;5018192;28;20196;-58
2022/12/07 01:07:23;;;;;;;22.85;11.00;;;;;;;-5.30;100.00;99287.69;5018607;28;20101;-59
2022/12/07 01:09:49;;;;;;;19.52;9.60;;;;;;;-5.52;100.00;99289.66;5018821;28;20137;-54
2022/12/07 01:12:16;;;;;;;22.48;10.18;;;;;;;-5.07;100.00;99280.31;5018718;28;20064;-59
2022/12/07 01:14:42;;;;;;;20.02;10.50;;;;;;;-5.30;100.00;99282.34;5018610;28;20144;-58
2022/12/07 01:17:08;;;;;;;23.50;9.60;;;;;;;-5.35;100.00;99281.50;5018504;28;20060;-54
2022/12/07 01:19:35;;;;;;;16.00;8.18;;;;;;;-5.30;100.00;99285.00;5018601;28;20462;-59
2022/12/07 01:22:02;;;;;;;29.17;10.23;;;;;;;-5.45;100.00;99279.56;5018518;28;20137;-57
2022/12/07 01:24:28;;;;;;;15.93;8.93;;;;;;;-5.01;100.00;99260.56;5018662;28;20065;-60
2022/12/07 01:26:54;;;;;;;24.58;9.40;;;;;;;-5.03;100.00;99266.19;5018329;28;20136;-55
2022/12/07 01:29:20;;;;;;;17.50;8.77;;;;;;;-5.02;100.00;99269.66;5018665;28;20054;-60
2022/12/07 01:31:50;;;;;;;23.58;9.38;;;;;;;-5.16;100.00;99271.16;5018229;28;20204;-57
2022/12/07 01:34:16;;;;;;;19.65;9.88;;;;;;;-5.34;100.00;99278.53;5018726;28;20069;-57
2022/12/07 01:36:42;;;;;;;20.58;10.45;;;;;;;-5.28;100.00;99271.38;5018154;28;20384;-58
2022/12/07 01:39:10;;;;;;;16.98;7.55;;;;;;;-5.32;100.00;99273.75;5018402;28;20058;-59
2022/12/07 01:41:40;;;;;;;22.05;9.13;;;;;;;-5.32;100.00;99275.63;5018171;28;20054;-58
2022/12/07 01:44:22;;;;;;;17.48;8.73;;;;;;;-5.36;100.00;99269.19;5017933;28;20081;-59
2022/12/07 01:46:49;;;;;;;19.65;9.38;;;;;;;-5.44;100.00;99268.59;5016642;28;20060;-57
2022/12/07 01:49:23;;;;;;;18.48;8.98;;;;;;;-5.25;100.00;99266.31;5018056;28;20054;-56
2022/12/07 01:51:52;;;;;;;14.65;7.45;;;;;;;-5.21;100.00;99272.75;5018333;28;20050;-57
2022/12/07 01:54:21;;;;;;;23.15;10.90;;;;;;;-5.08;100.00;99271.50;5017858;28;20104;-56
2022/12/07 01:56:51;;;;;;;15.35;8.20;;;;;;;-5.04;100.00;99274.44;5018378;28;20049;-58
2022/12/07 01:59:20;;;;;;;19.35;8.80;;;;;;;-5.06;100.00;99290.75;5018092;28;20073;-56
2022/12/07 02:01:46;;;;;;;19.25;8.75;;;;;;;-5.32;100.00;99295.13;5018024;28;20054;-57
2022/12/07 02:04:13;;;;;;;16.58;8.65;;;;;;;-5.31;100.00;99282.56;5017917;28;20057;-59
2022/12/07 02:06:41;;;;;;;20.75;8.98;;;;;;;-4.93;100.00;99265.44;5017659;28;20561;-60
2022/12/07 02:09:08;;;;;;;18.73;7.70;;;;;;;-5.29;100.00;99289.28;5017846;28;20050;-59
2022/12/07 02:11:35;;;;;;;23.98;10.20;;;;;;;-5.14;100.00;99279.75;5017564;28;20064;-58
2022/12/07 02:14:02;;;;;;;18.23;9.38;;;;;;;-5.11;100.00;99272.00;5017998;28;20120;-57
2022/12/07 02:16:37;;;;;;;23.48;10.32;;;;;;;-5.23;100.00;99268.75;5017604;28;20245;-56
2022/12/07 02:19:30;;;;;;;17.73;8.77;;;;;;;-5.15;100.00;99248.75;5017927;28;20426;-59
2022/12/07 02:22:11;;;;;;;21.75;8.90;;;;;;;-5.11;100.00;99250.63;5017693;28;20136;-58
2022/12/07 02:24:52;;;;;;;20.42;8.98;;;;;;;-5.37;100.00;99247.00;5017287;28;20076;-55
2022/12/07 02:27:38;;;;;;;22.05;8.57;;;;;;;-5.36;100.00;99229.91;5017610;28;20046;-57
2022/12/07 02:30:07;;;;;;;22.48;9.77;;;;;;;-5.23;100.00;99209.94;5017286;28;20062;-59
2022/12/07 02:32:43;;;;;;;21.17;9.75;;;;;;;-5.34;100.00;99214.41;5017622;28;20100;-58
2022/12/07 02:35:15;;;;;;;19.88;9.35;;;;;;;-5.30;100.00;99209.34;5017186;28;20137;-59
2022/12/07 02:37:47;;;;;;;22.27;10.05;;;;;;;-4.77;100.00;99192.19;5017181;28;20045;-58
2022/12/07 02:40:22;;;;;;;24.75;10.60;;;;;;;-5.32;100.00;99211.50;5017467;28;20092;-59
2022/12/07 02:42:54;;;;;;;23.85;10.30;;;;;;;-5.25;100.00;99207.53;5017168;28;20137;-60
2022/12/07 02:45:27;;;;;;;28.17;11.27;;;;;;;-5.46;100.00;99227.19;5017672;28;20140;-57
2022/12/07 02:47:58;;;;;;;31.10;13.33;;;;;;;-5.52;100.00;99207.66;5017147;28;20054;-58
2022/12/07 02:50:25;;;;;;;29.50;12.30;;;;;;;-5.03;100.00;99185.97;5017474;28;20050;-57
2022/12/07 02:52:51;;;;;;;19.48;9.07;;;;;;;-5.28;100.00;99196.56;5016985;28;20050;-58
2022/12/07 02:55:23;;;;;;;33.55;12.00;;;;;;;-5.41;100.00;99195.16;5017467;28;20049;-59
2022/12/07 02:58:03;;;;;;;25.23;10.90;;;;;;;-4.97;100.00;99200.16;5017193;28;20140;-58
2022/12/07 03:00:34;;;;;;;16.70;8.65;;;;;;;-5.38;100.00;99191.16;5017055;28;20447;-58
2022/12/07 03:03:04;;;;;;;21.00;10.63;;;;;;;-5.52;100.00;99182.81;5017147;28;20058;-58
2022/12/07 03:05:49;;;;;;;25.83;11.32;;;;;;;-5.29;100.00;99173.56;5016703;28;20054;-55
2022/12/07 03:08:22;;;;;;;25.63;10.85;;;;;;;-5.33;100.00;99165.28;5017250;28;20050;-58
2022/12/07 03:10:56;;;;;;;25.95;10.20;;;;;;;-5.47;100.00;99154.22;5016761;28;20136;-55
2022/12/07 03:13:30;;;;;;;24.85;11.00;;;;;;;-5.23;100.00;99146.59;5017166;28;20046;-57
2022/12/07 03:16:02;;;;;;;25.90;11.68;;;;;;;-5.27;100.00;99147.38;5016977;28;20058;-61
2022/12/07 03:18:32;;;;;;;25.20;11.07;;;;;;;-5.17;100.00;99147.41;5016636;28;20050;-56
2022/12/07 03:21:11;;;;;;;21.20;8.20;;;;;;;-5.47;100.00;99132.88;5016786;28;20412;-59
2022/12/07 03:23:41;;;;;;;21.63;9.95;;;;;;;-5.24;100.00;99128.16;5016541;28;20062;-59
2022/12/07 03:26:11;;;;;;;22.77;8.77;;;;;;;-5.18;100.00;99128.97;5016922;28;20426;-59
2022/12/07 03:28:44;;;;;;;18.70;10.05;;;;;;;-5.32;100.00;99137.47;5016022;28;20088;-56
2022/12/07 03:31:17;;;;;;;16.27;8.07;;;;;;;-5.39;100.00;99128.91;5016857;28;20053;-61
2022/12/07 03:33:52;;;;;;;17.00;6.93;;;;;;;-5.29;100.00;99136.16;5016403;28;20419;-57
2022/12/07 03:36:26;;;;;;;16.48;8.13;;;;;;;-5.23;100.00;99132.44;5016414;28;20408;-58
2022/12/07 03:39:01;;;;;;;19.77;9.30;;;;;;;-5.42;100.00;99118.75;5016743;28;20050;-60
2022/12/07 03:41:31;;;;;;;20.13;10.60;;;;;;;-5.31;100.00;99120.38;5016649;28;20152;-59
2022/12/07 03:43:58;;;;;;;18.52;9.27;;;;;;;-5.23;100.00;99106.53;5016787;28;20112;-58
2022/12/07 03:46:35;;;;;;;18.20;8.35;;;;;;;-5.06;100.00;99102.84;5016252;28;20053;-55
2022/12/07 03:49:09;;;;;;;15.52;8.57;;;;;;;-4.79;100.00;99108.75;5016701;28;20387;-60
2022/12/07 03:51:41;;;;;;;20.07;8.40;;;;;;;-5.04;100.00;99138.09;5016254;28;20374;-60
2022/12/07 03:54:12;;;;;;;18.40;8.27;;;;;;;-5.01;100.00;99141.06;5016192;28;20060;-58
2022/12/07 03:56:39;;;;;;;19.05;9.48;;;;;;;-5.31;100.00;99140.94;5016480;28;20054;-59
2022/12/07 03:59:06;;;;;;;22.67;10.55;;;;;;;-5.17;100.00;99142.06;5016058;28;20050;-58
2022/12/07 04:01:33;;;;;;;16.23;8.40;;;;;;;-5.16;100.00;99135.69;5016235;28;20419;-61
2022/12/07 04:03:59;;;;;;;23.90;8.75;;;;;;;-5.06;100.00;99137.59;5016236;28;20046;-58
2022/12/07 04:06:25;;;;;;;19.95;9.02;;;;;;;-5.28;100.00;99148.44;5016188;28;20149;-58
2022/12/07 04:08:52;;;;;;;26.55;10.38;;;;;;;-5.27;100.00;99139.34;5016094;28;20070;-58
2022/12/07 04:11:18;;;;;;;20.83;9.70;;;;;;;-5.28;100.00;99127.88;5016372;28;20056;-58
2022/12/07 04:16:38;;;;;;;23.25;9.20;;;;;;;-5.27;100.00;99131.34;4981074;28;20046;-60
2022/12/07 04:19:04;;;;;;;22.45;10.50;;;;;;;-5.33;100.00;99117.19;5015880;28;20145;-59
2022/12/07 04:21:31;;;;;;;20.73;10.52;;;;;;;-4.95;100.00;99111.66;5015981;28;20085;-60
2022/12/07 04:23:57;;;;;;;25.67;11.70;;;;;;;-5.11;100.00;99110.81;5016379;28;20196;-58
2022/12/07 04:26:23;;;;;;;23.80;10.48;;;;;;;-5.07;100.00;99102.00;5015605;28;20054;-60
2022/12/07 04:28:49;;;;;;;15.80;7.10;;;;;;;-5.44;100.00;99107.50;5015968;28;20399;-58
2022/12/07 04:31:16;;;;;;;18.33;9.73;;;;;;;-5.16;100.00;99086.75;5015604;28;20054;-58
2022/12/07 04:33:43;;;;;;;23.33;9.48;;;;;;;-4.89;100.00;99091.91;5015736;28;20054;-56
2022/12/07 04:36:09;;;;;;;19.55;9.60;;;;;;;-4.95;100.00;99099.09;5015627;28;20089;-57
2022/12/07 04:38:35;;;;;;;17.38;8.13;;;;;;;-5.03;100.00;99100.44;5016111;28;20091;-58
2022/12/07 04:41:05;;;;;;;17.67;8.18;;;;;;;-4.88;100.00;99105.00;5016515;28;20064;-56
2022/12/07 04:43:31;;;;;;;18.48;8.15;;;;;;;-5.10;100.00;99104.41;5018695;28;20053;-58
2022/12/07 04:45:58;;;;;;;13.05;8.05;;;;;;;-5.07;100.00;99122.59;5019040;28;20082;-60
2022/12/07 04:48:24;;;;;;;20.25;8.15;;;;;;;-5.21;100.00;99122.28;5019011;28;20128;-59
2022/12/07 04:50:51;;;;;;;16.58;7.60;;;;;;;-5.15;100.00;99121.25;5018854;28;20494;-58
2022/12/07 04:53:18;;;;;;;15.80;7.47;;;;;;;-4.78;100.00;99117.56;5018689;28;20315;-60
2022/12/07 04:55:44;;;;;;;15.35;7.20;;;;;;;-5.06;100.00;99135.72;5019051;28;20053;-54
2022/12/07 04:58:11;;;;;;;20.67;8.07;;;;;;;-4.90;100.00;99133.06;5018184;28;20141;-57
2022/12/07 05:00:37;;;;;;;18.52;7.10;;;;;;;-4.77;100.00;99132.53;5018741;28;20418;-60
2022/12/07 05:03:03;;;;;;;16.10;7.63;;;;;;;-4.56;100.00;99141.44;5018559;28;20054;-59
2022/12/07 05:05:30;;;;;;;16.75;8.98;;;;;;;-4.60;100.00;99153.72;5018870;28;20403;-60
2022/12/07 05:07:57;;;;;;;15.30;7.97;;;;;;;-4.79;100.00;99156.09;5018429;28;20435;-58
2022/12/07 05:10:23;;;;;;;12.60;7.90;;;;;;;-4.92;100.00;99164.63;5018944;28;20076;-58
2022/12/07 05:12:49;;;;;;;23.05;10.25;;;;;;;-4.89;100.00;99159.53;5018277;28;20053;-58
2022/12/07 05:15:16;;;;;;;34.20;11.20;;;;;;;-5.07;100.00;99158.13;5018501;28;20432;-60
2022/12/07 05:17:43;;;;;;;30.40;12.05;;;;;;;-4.87;100.00;99149.38;5018555;28;20053;-59
2022/12/07 05:20:10;;;;;;;28.25;10.48;;;;;;;-4.91;100.00;99148.31;5018171;28;20396;-59
2022/12/07 05:22:36;;;;;;;28.42;11.95;;;;;;;-4.99;100.00;99144.28;5018386;28;20324;-56
2022/12/07 05:25:03;;;;;;;21.13;8.98;;;;;;;-4.95;100.00;99141.88;5017963;28;20065;-58
2022/12/07 05:27:29;;;;;;;22.95;10.65;;;;;;;-4.81;100.00;99137.63;5018548;28;20072;-59
2022/12/07 05:29:56;;;;;;;16.10;8.60;;;;;;;-4.76;100.00;99126.94;5018235;28;20049;-59
2022/12/07 05:32:23;;;;;;;21.65;10.73;;;;;;;-4.93;100.00;99130.91;5018294;28;20141;-59
2022/12/07 05:34:49;;;;;;;17.48;8.50;;;;;;;-4.87;100.00;99137.88;5018082;28;20137;-58
2022/12/07 05:37:15;;;;;;;19.95;8.63;;;;;;;-4.62;100.00;99126.44;5018427;28;20053;-54
2022/12/07 05:39:42;;;;;;;19.27;8.82;;;;;;;-4.85;100.00;99131.19;5017656;28;20065;-59
2022/12/07 05:42:13;;;;;;;18.98;9.32;;;;;;;-4.92;100.00;99124.50;5017731;28;20490;-59
2022/12/07 05:44:40;;;;;;;21.33;8.65;;;;;;;-5.08;100.00;99124.47;5018106;28;20057;-60
2022/12/07 05:47:06;;;;;;;20.17;9.88;;;;;;;-4.56;100.00;99112.00;5017878;28;20054;-60
2022/12/07 05:49:33;;;;;;;17.00;9.70;;;;;;;-4.95;100.00;99117.03;5017775;28;20105;-60
2022/12/07 05:51:59;;;;;;;18.17;9.73;;;;;;;-4.85;100.00;99103.66;5017175;28;20056;-58
2022/12/07 05:54:26;;;;;;;19.02;9.57;;;;;;;-4.72;100.00;99095.13;5017954;28;20077;-58
2022/12/07 05:56:52;;;;;;;25.42;9.60;;;;;;;-4.63;100.00;99103.41;5017670;28;20133;-55
2022/12/07 05:59:26;;;;;;;30.73;9.95;;;;;;;-4.90;100.00;99107.13;5017934;28;20085;-61
2022/12/07 06:01:54;;;;;;;18.02;9.60;;;;;;;-4.75;100.00;99101.00;5017605;28;20085;-58
2022/12/07 06:04:22;;;;;;;19.80;8.50;;;;;;;-4.86;100.00;99097.53;5017875;28;20096;-55
2022/12/07 06:06:48;;;;;;;16.08;7.57;;;;;;;-4.83;100.00;99102.34;5017237;28;20462;-58
2022/12/07 06:09:16;;;;;;;20.27;9.18;;;;;;;-4.88;100.00;99099.63;5017497;28;20412;-56
2022/12/07 06:14:27;;;;;;;15.75;8.00;;;;;;;-4.83;100.00;99085.47;5017332;28;20053;-59
2022/12/07 06:16:53;;;;;;;14.80;7.60;;;;;;;-4.94;100.00;99087.31;5017390;28;20368;-59
2022/12/07 06:19:20;;;;;;;15.65;8.40;;;;;;;-4.82;100.00;99079.06;5017053;28;20050;-58
2022/12/07 06:21:46;;;;;;;13.88;6.90;;;;;;;-5.08;100.00;99079.03;5017189;28;20053;-59
2022/12/07 06:24:14;;;;;;;25.02;13.27;;;;;;;-5.14;100.00;99076.59;5016938;28;20057;-59
2022/12/07 06:26:40;;;;;;;38.78;17.88;;;;;;;-4.84;100.00;99067.81;5017348;28;20092;-57
2022/12/07 06:29:07;;;;;;;16.73;8.65;;;;;;;-4.96;100.00;99073.44;5017106;28;20081;-60
2022/12/07 06:31:36;;;;;;;22.15;11.68;;;;;;;-4.87;100.00;99061.13;5017021;28;20200;-60
2022/12/07 06:34:04;;;;;;;21.92;10.75;;;;;;;-5.04;100.00;99060.56;5016767;28;20457;-58
2022/12/07 06:36:30;;;;;;;21.80;9.82;;;;;;;-4.78;100.00;99053.38;5016635;28;20152;-59
2022/12/07 06:38:57;;;;;;;28.35;13.57;;;;;;;-4.70;100.00;99054.72;5017047;28;20183;-59
2022/12/07 06:41:23;;;;;;;25.42;12.00;;;;;;;-5.02;100.00;99075.28;5016767;28;20136;-60
2022/12/07 06:43:50;;;;;;;20.92;9.52;;;;;;;-4.82;100.00;99063.81;5017020;28;20053;-60
2022/12/07 06:46:17;;;;;;;24.45;11.38;;;;;;;-4.75;100.00;99060.88;5016776;28;20062;-61
2022/12/07 06:48:44;;;;;;;23.80;11.43;;;;;;;-4.71;100.00;99059.28;5016805;28;20054;-60
2022/12/07 06:51:10;;;;;;;24.73;11.13;;;;;;;-5.02;100.00;99055.78;5016422;28;20054;-57
2022/12/07 06:53:37;;;;;;;35.35;11.80;;;;;;;-4.95;100.00;99055.53;5016851;28;20140;-60
2022/12/07 06:56:04;;;;;;;27.40;12.68;;;;;;;-4.74;100.00;99030.38;5016501;28;20115;-59
2022/12/07 06:58:30;;;;;;;26.55;11.48;;;;;;;-4.80;100.00;99029.59;5016806;28;20506;-58
2022/12/07 07:00:57;;;;;;;25.00;11.43;;;;;;;-4.97;100.00;99043.19;5016793;28;20046;-59
2022/12/07 07:03:24;;;;;;;18.45;8.48;;;;;;;-5.02;100.00;99015.69;5015701;28;20061;-55
2022/12/07 07:05:51;;;;;;;14.77;8.40;;;;;;;-5.08;100.00;99016.75;5016829;28;20393;-57
2022/12/07 07:08:18;;;;;;;21.98;10.07;;;;;;;-4.95;100.00;98994.03;5016537;28;20056;-58
2022/12/07 07:10:44;;;;;;;24.90;11.68;;;;;;;-4.76;100.00;98992.44;5016422;28;20148;-60
2022/12/07 07:13:10;;;;;;;27.73;12.85;;;;;;;-4.82;100.00;98990.81;5016773;28;20060;-57
2022/12/07 07:15:38;;;;;;;21.92;10.35;;;;;;;-4.88;100.00;98986.53;5016238;28;20069;-59
2022/12/07 07:18:04;;;;;;;23.35;7.75;;;;;;;-4.92;100.00;98978.25;5016557;28;20430;-59
2022/12/07 07:20:31;;;;;;;29.23;12.38;;;;;;;-4.64;100.00;98965.38;5016247;28;20085;-57
2022/12/07 07:22:58;;;;;;;26.10;12.98;;;;;;;-4.77;100.00;98982.78;5016766;28;20078;-59
2022/12/07 07:25:25;;;;;;;24.05;10.50;;;;;;;-4.89;100.00;98967.03;5015989;28;20053;-56
2022/12/07 07:27:51;;;;;;;27.55;10.10;;;;;;;-4.87;100.00;98964.06;5016428;28;20076;-60
2022/12/07 07:30:18;;;;;;;34.03;15.20;;;;;;;-4.57;100.00;98949.84;5016490;28;20050;-61
2022/12/07 07:32:44;;;;;;;26.30;12.20;;;;;;;-4.70;100.00;98971.81;5016068;28;20096;-57
2022/12/07 07:35:10;;;;;;;30.17;13.23;;;;;;;-4.79;100.00;98980.38;5016261;28;20060;-61
2022/12/07 07:37:36;;;;;;;34.13;14.93;;;;;;;-4.68;100.00;98967.81;5016113;28;20112;-55
2022/12/07 07:40:05;;;;;;;21.75;10.50;;;;;;;-4.61;100.00;98964.84;5015993;28;20053;-59
2022/12/07 07:42:31;;;;;;;40.08;15.88;;;;;;;-4.38;100.00;98974.97;5015813;28;20313;-58
2022/12/07 07:44:57;;;;;;;14.48;7.57;;;;;;;-4.66;100.00;98991.63;5016218;28;20323;-57
2022/12/07 07:47:24;;;;;;;21.98;9.77;;;;;;;-4.63;100.00;98989.22;5015744;28;20064;-57
2022/12/07 07:49:50;;;;;;;33.00;12.70;;;;;;;-4.48;100.00;98984.91;5016152;28;20136;-58
2022/12/07 07:52:16;;;;;;;46.33;17.42;;;;;;;-4.25;100.00;98984.31;5015872;28;20058;-60
2022/12/07 07:54:43;;;;;;;28.10;14.00;;;;;;;-4.52;100.00;99001.50;5016140;28;20339;-56
2022/12/07 07:57:10;;;;;;;24.92;12.90;;;;;;;-4.48;100.00;98999.06;5015603;28;20053;-62
2022/12/07 07:59:36;;;;;;;23.88;10.98;;;;;;;-4.63;100.00;99012.44;5015796;28;20054;-58
2022/12/07 08:02:02;;;;;;;17.80;9.40;;;;;;;-4.55;100.00;99003.91;5015954;28;20089;-60
2022/12/07 08:04:29;;;;;;;16.35;8.13;;;;;;;-4.44;100.00;99008.16;5015489;28;20085;-57
2022/12/07 08:06:55;;;;;;;13.48;7.68;;;;;;;-4.75;100.00;99024.25;5016116;28;20331;-58
2022/12/07 08:09:21;;;;;;;15.88;8.82;;;;;;;-4.82;100.00;99017.56;5015643;28;20060;-59
2022/12/07 08:11:48;;;;;;;22.77;10.57;;;;;;;-4.55;100.00;99012.72;5015463;28;20301;-58
2022/12/07 08:14:15;;;;;;;29.70;13.38;;;;;;;-4.41;100.00;99010.28;5015686;28;20061;-58
2022/12/07 08:16:41;;;;;;;26.05;12.38;;;;;;;-4.55;100.00;99011.94;5019246;28;20141;-55
2022/12/07 08:19:07;;;;;;;17.77;9.30;;;;;;;-4.33;100.00;99015.13;5018889;28;20147;-62
2022/12/07 08:21:34;;;;;;;19.92;8.98;;;;;;;-4.51;100.00;99029.03;5019220;28;20411;-59
2022/12/07 08:24:00;;;;;;;14.40;7.20;;;;;;;-4.70;100.00;99011.94;5018676;28;20126;-57
2022/12/07 08:26:26;;;;;;;19.60;8.30;;;;;;;-4.42;100.00;99019.41;5018741;28;20051;-59
2022/12/07 08:28:53;;;;;;;14.80;8.73;;;;;;;-4.82;100.00;99015.69;5018975;28;20484;-54
2022/12/07 08:31:20;;;;;;;16.10;6.63;;;;;;;-4.79;100.00;99011.69;5018694;28;20419;-57
2022/12/07 08:33:47;;;;;;;16.20;7.78;;;;;;;-4.65;100.00;99004.72;5019031;28;20136;-58
2022/12/07 08:36:14;;;;;;;12.80;6.70;;;;;;;-4.47;100.00;99002.53;5018801;28;20419;-56
2022/12/07 08:38:41;;;;;;;16.65;7.22;;;;;;;-4.60;100.00;99003.91;5018961;28;20148;-58
2022/12/07 08:41:08;;;;;;;14.20;7.35;;;;;;;-4.71;100.00;98995.09;5018548;28;20234;-57
2022/12/07 08:43:35;;;;;;;13.98;6.80;;;;;;;-4.82;100.00;98991.63;5018715;28;20089;-59
2022/12/07 08:46:07;;;;;;;12.82;7.13;;;;;;;-4.63;100.00;98989.22;5018476;28;20140;-59
2022/12/07 08:48:37;;;;;;;14.77;6.97;;;;;;;-4.70;100.00;98996.69;5018865;28;20323;-58
2022/12/07 08:51:03;;;;;;;16.35;7.55;;;;;;;-4.66;100.00;98986.28;5018617;28;20053;-59
2022/12/07 08:53:31;;;;;;;15.10;7.28;;;;;;;-4.75;100.00;98994.81;5018748;28;20060;-60
2022/12/07 08:55:58;;;;;;;11.15;5.75;;;;;;;-4.52;100.00;98976.63;5018768;28;20102;-58
2022/12/07 08:58:24;;;;;;;12.45;5.78;;;;;;;-4.71;100.00;98988.94;5018529;28;20050;-59
2022/12/07 09:00:51;;;;;;;16.48;6.78;;;;;;;-4.89;100.00;98977.72;5018258;28;20454;-60
2022/12/07 09:03:17;;;;;;;12.18;6.13;;;;;;;-4.94;100.00;98968.88;5018583;28;20050;-61
2022/12/07 09:05:44;;;;;;;22.00;9.27;;;;;;;-4.84;100.00;98975.03;5018408;28;20458;-59
2022/12/07 09:08:11;;;;;;;24.05;10.10;;;;;;;-4.76;100.00;98969.16;5018291;28;20054;-60
2022/12/07 09:10:37;;;;;;;25.95;10.20;;;;;;;-4.85;100.00;98964.63;5018263;28;20058;-58
2022/12/07 09:13:04;;;;;;;20.08;8.90;;;;;;;-4.66;100.00;98967.53;5018207;28;20128;-57
2022/12/07 09:15:31;;;;;;;24.77;10.00;;;;;;;-4.71;100.00;98954.16;5018830;28;20077;-57
2022/12/07 09:17:57;;;;;;;27.50;9.73;;;;;;;-4.84;100.00;98958.97;5018065;28;20129;-59
2022/12/07 09:20:23;;;;;;;24.58;11.43;;;;;;;-4.81;100.00;98949.63;5018157;28;20064;-55
2022/12/07 09:22:50;;;;;;;12.07;6.45;;;;;;;-4.97;100.00;98957.66;5018114;28;20052;-60
2022/12/07 09:25:17;;;;;;;17.45;8.98;;;;;;;-4.86;100.00;98949.66;5018150;28;20058;-55
2022/12/07 09:27:43;;;;;;;13.80;5.97;;;;;;;-4.80;100.00;98946.69;5017208;28;20085;-58
2022/12/07 09:30:10;;;;;;;14.57;7.50;;;;;;;-4.78;100.00;98947.22;5017931;28;20050;-58
2022/12/07 09:32:36;;;;;;;12.55;6.28;;;;;;;-4.68;100.00;98938.38;5018173;28;20081;-60
2022/12/07 09:35:03;;;;;;;15.23;6.53;;;;;;;-4.63;100.00;98927.69;5017830;28;20446;-58
2022/12/07 09:37:31;;;;;;;11.13;6.82;;;;;;;-4.56;100.00;98930.06;5017946;28;20092;-59
2022/12/07 09:39:58;;;;;;;11.85;6.78;;;;;;;-4.61;100.00;98930.88;5017788;28;20080;-57
2022/12/07 09:42:30;;;;;;;22.58;7.78;;;;;;;-4.80;100.00;98927.97;5018292;28;20415;-59
2022/12/07 09:44:58;;;;;;;11.43;6.05;;;;;;;-4.39;100.00;98930.56;5017561;28;20164;-55
2022/12/07 09:47:24;;;;;;;12.27;5.53;;;;;;;-4.67;100.00;98923.13;5017686;28;20141;-57
2022/12/07 09:49:51;;;;;;;11.30;5.47;;;;;;;-4.79;100.00;98923.44;5017627;28;20113;-60
2022/12/07 09:52:22;;;;;;;14.57;6.57;;;;;;;-4.83;100.00;98917.00;5017636;28;20057;-58
2022/12/07 09:54:50;;;;;;;17.25;6.97;;;;;;;-4.97;100.00;98919.41;5017970;28;20430;-59
2022/12/07 09:57:17;;;;;;;18.27;7.93;;;;;;;-5.05;100.00;98906.59;5017622;28;20065;-59
2022/12/07 09:59:44;;;;;;;19.67;8.98;;;;;;;-4.89;100.00;98910.88;5017701;28;20092;-60
2022/12/07 10:02:28;;;;;;;20.95;9.15;;;;;;;-4.71;100.00;98909.50;5017753;28;20371;-59
2022/12/07 10:04:56;;;;;;;11.90;5.47;;;;;;;-4.94;100.00;98902.03;5017734;28;20147;-57
2022/12/07 10:07:22;;;;;;;17.85;8.60;;;;;;;-4.49;100.00;98906.50;5017089;28;20050;-59
2022/12/07 10:09:49;;;;;;;14.68;7.00;;;;;;;-4.64;100.00;98901.19;5017026;28;20391;-59
2022/12/07 10:12:15;;;;;;;9.93;5.82;;;;;;;-4.43;100.00;98891.22;5017503;28;20068;-56
2022/12/07 10:14:55;;;;;;;13.05;6.05;;;;;;;-4.76;100.00;98886.25;5017390;28;20049;-57
2022/12/07 10:17:38;;;;;;;9.43;4.28;;;;;;;-4.90;100.00;98881.72;5017302;28;20050;-57
2022/12/07 10:20:19;;;;;;;13.13;6.75;;;;;;;-4.78;100.00;98880.34;5017243;28;20049;-57
2022/12/07 10:23:01;;;;;;;18.02;6.38;;;;;;;-4.83;100.00;98875.03;5017157;28;20054;-60
2022/12/07 10:25:31;;;;;;;16.95;7.78;;;;;;;-4.53;100.00;98870.69;5016789;28;20050;-59
2022/12/07 10:28:00;;;;;;;14.93;7.45;;;;;;;-4.60;100.00;98867.47;5016146;28;20112;-67
2022/12/07 10:30:27;;;;;;;20.23;7.90;;;;;;;-4.63;100.00;98860.81;5016291;28;20060;-64
2022/12/07 10:32:53;;;;;;;19.00;8.68;;;;;;;-4.48;100.00;98862.63;5017367;28;20049;-66
2022/12/07 10:35:24;;;;;;;18.30;8.27;;;;;;;-4.59;100.00;98858.38;5017161;28;20049;-63
2022/12/07 10:37:51;;;;;;;14.27;5.78;;;;;;;-4.64;100.00;98851.16;5016768;28;20330;-66
2022/12/07 10:40:33;;;;;;;17.10;7.10;;;;;;;-4.41;100.00;98848.94;5016410;28;20148;-68
2022/12/07 10:43:05;;;;;;;13.95;6.32;;;;;;;-4.57;100.00;98840.16;5017381;28;20046;-65
2022/12/07 10:45:33;;;;;;;15.90;7.63;;;;;;;-4.46;100.00;98839.06;5016858;28;20445;-61
2022/12/07 10:48:09;;;;;;;9.75;5.85;;;;;;;-4.35;100.00;98831.78;5017315;28;20411;-66
2022/12/07 10:50:47;;;;;;;12.00;6.07;;;;;;;-4.64;100.00;98837.00;5016965;28;20046;-62
2022/12/07 10:53:35;;;;;;;8.70;5.63;;;;;;;-4.35;100.00;98831.78;5016934;28;20076;-67
2022/12/07 10:56:19;;;;;;;11.23;5.35;;;;;;;-4.38;100.00;98835.03;5017189;28;20097;-66
2022/12/07 10:59:02;;;;;;;7.53;5.00;;;;;;;-4.41;100.00;98830.22;5016815;28;20424;-63
2022/12/07 11:01:33;;;;;;;11.55;6.07;;;;;;;-4.33;100.00;98827.78;5017121;28;20045;-65
2022/12/07 11:04:22;;;;;;;12.07;6.15;;;;;;;-3.88;100.00;98836.59;5017084;28;20075;-68
2022/12/07 11:06:58;;;;;;;15.90;7.03;;;;;;;-3.65;100.00;98837.78;5016392;28;20053;-66
2022/12/07 11:10:01;;;;;;;12.38;5.35;;;;;;;-3.56;100.00;98805.84;5016765;28;20145;-65
2022/12/07 11:12:42;;;;;;;8.60;5.40;;;;;;;-4.12;100.00;98792.88;5001577;28;20049;-64
2022/12/07 11:15:18;;;;;;;10.82;4.90;;;;;;;-4.08;100.00;98804.59;5016307;28;20411;-64
2022/12/07 11:17:54;;;;;;;15.45;6.90;;;;;;;-4.14;100.00;98809.19;5016456;28;20115;-64
2022/12/07 11:20:36;;;;;;;12.68;6.60;;;;;;;-4.36;100.00;98803.44;5016251;28;20145;-63
2022/12/07 11:23:13;;;;;;;13.68;6.50;;;;;;;-4.13;100.00;98820.69;5016526;28;20103;-63
2022/12/07 11:25:50;;;;;;;14.43;7.38;;;;;;;-4.10;100.00;98820.13;5016317;28;20145;-65
2022/12/07 11:28:33;;;;;;;8.05;4.90;;;;;;;-4.24;100.00;98819.16;5016987;28;20301;-65